Terminal Aerodrome Forecast
Issued by NWS

Home | Current Version | Previous Version | Text Only | Print | Product List | Glossary On
Versions: 1 2 3 4 5 6 7 8 9 10 11 12 13 14 15 16 17 18 19 20 21 22 23 24 25 26 27 28
000
FTUS45 KBOI 221721
TAFBKE
TAF
KBKE 221721Z 2218/2318 15008KT P6SM FEW080 BKN200
     FM222100 17007KT P6SM VCTS SCT050CB BKN100
      TEMPO 2222/2301 VRB15G25KT 6SM TSRA BKN040CB
     FM230100 30007KT P6SM -SHRA VCTS SCT050CB OVC090
     FM230600 25007KT P6SM -SHRA BKN050 OVC090
     FM230900 VRB04KT P6SM SCT050 BKN100=

USA.gov is the U.S. government's official web portal to all federal, state and local government web resources and services.